createdAt,value
2022-08-27T00:01:22.287Z,18.20
2022-08-27T00:03:51.256Z,17.55
2022-08-27T00:06:19.801Z,18.02
2022-08-27T00:08:47.725Z,17.10
2022-08-27T00:11:15.682Z,16.23
2022-08-27T00:13:43.312Z,16.52
2022-08-27T00:16:12.061Z,16.40
2022-08-27T00:18:40.288Z,17.45
2022-08-27T00:21:09.101Z,16.33
2022-08-27T00:23:36.633Z,16.55
2022-08-27T00:26:04.905Z,15.52
2022-08-27T00:28:32.644Z,16.48
2022-08-27T00:31:00.417Z,16.25
2022-08-27T00:33:30.586Z,16.75
2022-08-27T00:35:58.105Z,16.83
2022-08-27T00:38:26.893Z,16.48
2022-08-27T00:40:55.292Z,16.80
2022-08-27T00:43:23.988Z,16.67
2022-08-27T00:45:53.294Z,17.00
2022-08-27T00:48:21.513Z,15.82
2022-08-27T00:50:51.934Z,18.08
2022-08-27T00:55:51.785Z,16.60
2022-08-27T00:58:22.756Z,16.73
2022-08-27T01:00:50.348Z,15.80
2022-08-27T01:03:18.054Z,17.23
2022-08-27T01:05:46.490Z,16.63
2022-08-27T01:08:15.213Z,15.63
2022-08-27T01:10:43.088Z,15.93
2022-08-27T01:13:14.121Z,15.38
2022-08-27T01:15:42.542Z,16.67
2022-08-27T01:18:13.307Z,15.80
2022-08-27T01:20:43.764Z,15.95
2022-08-27T01:25:42.040Z,15.02
2022-08-27T01:28:09.977Z,15.65
2022-08-27T01:30:37.821Z,16.27
2022-08-27T01:33:09.169Z,16.25
2022-08-27T01:35:40.152Z,16.50
2022-08-27T01:38:12.036Z,17.08
2022-08-27T01:40:48.093Z,16.80
2022-08-27T01:43:15.544Z,17.55
2022-08-27T01:45:45.969Z,17.85
2022-08-27T01:48:13.436Z,18.52
2022-08-27T01:50:41.425Z,19.23
2022-08-27T01:53:11.707Z,17.67
2022-08-27T01:55:39.941Z,18.40
2022-08-27T01:58:15.153Z,18.85
2022-08-27T02:00:44.213Z,18.88
2022-08-27T02:03:12.125Z,18.60
2022-08-27T02:05:44.661Z,21.27
2022-08-27T02:08:12.957Z,19.70
2022-08-27T02:10:41.165Z,20.13
2022-08-27T02:13:09.457Z,19.00
2022-08-27T02:15:38.537Z,19.67
2022-08-27T02:18:06.607Z,19.35
2022-08-27T02:20:34.681Z,19.58
2022-08-27T02:23:02.993Z,18.63
2022-08-27T02:25:30.492Z,18.80
2022-08-27T02:28:00.321Z,19.55
2022-08-27T02:30:28.904Z,18.63
2022-08-27T02:32:57.685Z,18.45
2022-08-27T02:35:25.467Z,19.60
2022-08-27T02:37:53.488Z,19.10
2022-08-27T02:40:21.864Z,19.60
2022-08-27T02:42:49.833Z,19.55
2022-08-27T02:45:17.893Z,20.35
2022-08-27T02:47:45.773Z,21.15
2022-08-27T02:50:14.846Z,20.65
2022-08-27T02:52:42.444Z,22.58
2022-08-27T02:55:10.235Z,21.77
2022-08-27T02:57:37.820Z,21.92
2022-08-27T03:00:06.375Z,24.05
2022-08-27T03:02:33.955Z,22.25
2022-08-27T03:05:01.560Z,21.40
2022-08-27T03:07:30.380Z,23.02
2022-08-27T03:09:57.809Z,21.58
2022-08-27T03:12:25.382Z,21.98
2022-08-27T03:14:52.904Z,23.05
2022-08-27T03:17:37.815Z,21.38
2022-08-27T03:20:06.789Z,22.13
2022-08-27T03:22:35.637Z,21.10
2022-08-27T03:25:03.176Z,22.13
2022-08-27T03:27:30.653Z,22.30
2022-08-27T03:30:03.121Z,22.90
2022-08-27T03:32:31.313Z,21.67
2022-08-27T03:34:59.397Z,22.30
2022-08-27T03:37:26.970Z,22.08
2022-08-27T03:39:56.088Z,22.02
2022-08-27T03:42:23.668Z,21.80
2022-08-27T03:44:51.960Z,23.33
2022-08-27T03:47:19.737Z,22.75
2022-08-27T03:49:47.178Z,23.48
2022-08-27T03:52:14.928Z,24.35
2022-08-27T03:54:42.547Z,24.25
2022-08-27T03:57:11.496Z,23.13
2022-08-27T03:59:39.001Z,22.65
2022-08-27T04:02:06.483Z,25.70
2022-08-27T04:04:34.037Z,24.27
2022-08-27T04:07:01.657Z,23.80
2022-08-27T04:09:29.160Z,26.58
2022-08-27T04:11:56.763Z,24.42
2022-08-27T04:14:26.835Z,25.27
2022-08-27T04:19:26.929Z,24.73
2022-08-27T04:21:55.057Z,25.13
2022-08-27T04:24:22.906Z,24.83
2022-08-27T04:26:50.389Z,26.42
2022-08-27T04:29:17.862Z,23.95
2022-08-27T04:31:46.701Z,23.40
2022-08-27T04:34:14.165Z,23.25
2022-08-27T04:36:41.712Z,22.42
2022-08-27T04:39:09.217Z,24.42
2022-08-27T04:41:36.868Z,23.55
2022-08-27T04:44:06.040Z,23.33
2022-08-27T04:46:35.198Z,23.60
2022-08-27T04:49:07.223Z,24.42
2022-08-27T04:51:39.371Z,23.83
2022-08-27T04:54:08.462Z,24.15
2022-08-27T04:56:36.480Z,24.77
2022-08-27T04:59:04.781Z,25.08
2022-08-27T05:01:32.333Z,24.98
2022-08-27T05:03:59.828Z,25.23
2022-08-27T05:06:28.704Z,24.67
2022-08-27T05:08:56.461Z,24.83
2022-08-27T05:11:26.269Z,23.13
2022-08-27T05:13:53.797Z,24.30
2022-08-27T05:16:23.139Z,20.98
2022-08-27T05:18:51.693Z,21.30
2022-08-27T05:21:20.692Z,21.08
2022-08-27T05:23:49.519Z,21.48
2022-08-27T05:26:17.010Z,19.92
2022-08-27T05:28:44.891Z,21.70
2022-08-27T05:31:13.528Z,19.45
2022-08-27T05:33:41.791Z,18.17
2022-08-27T05:36:14.988Z,18.40
2022-08-27T05:38:43.227Z,16.63
2022-08-27T05:41:12.892Z,17.23
2022-08-27T05:43:41.369Z,16.02
2022-08-27T05:46:10.019Z,16.75
2022-08-27T05:48:37.832Z,15.93
2022-08-27T05:51:09.286Z,16.00
2022-08-27T05:53:36.804Z,15.88
2022-08-27T05:56:04.521Z,15.00
2022-08-27T05:58:50.829Z,15.45
2022-08-27T06:01:21.746Z,15.80
2022-08-27T06:03:49.189Z,17.50
2022-08-27T06:06:16.664Z,17.13
2022-08-27T06:08:44.392Z,15.85
2022-08-27T06:11:12.053Z,15.35
2022-08-27T06:13:41.422Z,15.48
2022-08-27T06:16:14.088Z,15.38
2022-08-27T06:21:09.546Z,14.80
2022-08-27T06:23:37.366Z,15.27
2022-08-27T06:26:06.972Z,14.65
2022-08-27T06:28:35.429Z,16.23
2022-08-27T06:31:05.496Z,15.45
2022-08-27T06:33:33.281Z,15.10
2022-08-27T06:36:01.232Z,15.70
2022-08-27T06:38:28.750Z,14.95
2022-08-27T06:40:57.192Z,15.07
2022-08-27T06:43:25.274Z,13.82
2022-08-27T06:45:52.888Z,13.55
2022-08-27T06:48:22.813Z,15.38
2022-08-27T06:50:50.323Z,12.73
2022-08-27T06:53:17.780Z,13.95
2022-08-27T06:55:51.751Z,13.20
2022-08-27T06:58:19.713Z,13.68
2022-08-27T07:00:49.005Z,12.23
2022-08-27T07:03:16.614Z,12.38
2022-08-27T07:05:45.470Z,12.60
2022-08-27T07:08:13.098Z,10.90
2022-08-27T07:10:40.707Z,10.73
2022-08-27T07:13:08.164Z,11.18
2022-08-27T07:15:39.004Z,10.82
2022-08-27T07:18:06.460Z,10.27
2022-08-27T07:20:34.224Z,11.65
2022-08-27T07:23:03.043Z,9.93
2022-08-27T07:25:32.189Z,11.95
2022-08-27T07:28:01.004Z,12.20
2022-08-27T07:30:28.947Z,12.05
2022-08-27T07:32:56.493Z,11.63
2022-08-27T07:35:23.990Z,13.45
2022-08-27T07:37:51.444Z,14.02
2022-08-27T07:40:20.358Z,12.90
2022-08-27T07:43:05.149Z,13.05
2022-08-27T07:45:32.785Z,11.50
2022-08-27T07:48:00.297Z,12.07
2022-08-27T07:50:27.778Z,11.35
2022-08-27T07:52:55.282Z,11.68
2022-08-27T07:55:24.055Z,11.38
2022-08-27T07:57:52.617Z,11.52
2022-08-27T08:00:21.548Z,10.93
2022-08-27T08:02:49.575Z,11.25
2022-08-27T08:05:17.281Z,9.23
2022-08-27T08:07:44.751Z,9.07
2022-08-27T08:10:12.365Z,8.07
2022-08-27T08:12:41.419Z,7.47
2022-08-27T08:15:10.864Z,7.47
2022-08-27T08:17:40.375Z,7.22
2022-08-27T08:20:21.890Z,6.03
2022-08-27T08:22:54.782Z,6.20
2022-08-27T08:25:22.277Z,6.95
2022-08-27T08:27:51.132Z,6.40
2022-08-27T08:30:18.719Z,7.18
2022-08-27T08:32:46.240Z,7.10
2022-08-27T08:35:13.763Z,6.25
2022-08-27T08:37:43.278Z,7.28
2022-08-27T08:40:11.972Z,7.85
2022-08-27T08:42:42.584Z,7.57
2022-08-27T08:45:21.946Z,8.68
2022-08-27T08:47:51.757Z,6.75
2022-08-27T08:50:22.097Z,7.10
2022-08-27T08:52:51.594Z,7.75
2022-08-27T08:55:24.855Z,6.55
2022-08-27T08:57:58.830Z,6.63
2022-08-27T09:00:27.908Z,5.63
2022-08-27T09:02:55.962Z,5.53
2022-08-27T09:05:27.524Z,6.05
2022-08-27T09:08:15.358Z,6.00
2022-08-27T09:10:50.120Z,5.32
2022-08-27T09:13:22.355Z,5.40
2022-08-27T09:15:59.356Z,4.93
2022-08-27T09:18:27.959Z,6.13
2022-08-27T09:20:58.960Z,5.15
2022-08-27T09:23:33.721Z,5.60
2022-08-27T09:26:01.196Z,5.82
2022-08-27T09:28:47.583Z,6.18
2022-08-27T09:31:18.726Z,5.90
2022-08-27T09:33:56.727Z,5.57
2022-08-27T09:36:24.905Z,5.68
2022-08-27T09:38:57.849Z,5.65
2022-08-27T09:41:27.959Z,6.28
2022-08-27T09:43:59.307Z,5.88
2022-08-27T09:46:28.911Z,5.35
2022-08-27T09:48:56.787Z,4.53
2022-08-27T09:51:26.973Z,4.75
2022-08-27T09:53:55.865Z,4.93
2022-08-27T09:56:25.393Z,4.95
2022-08-27T09:58:54.871Z,4.55
2022-08-27T10:01:23.477Z,9.45
2022-08-27T10:04:03.333Z,5.55
2022-08-27T10:06:31.895Z,5.82
2022-08-27T10:09:06.932Z,6.45
2022-08-27T10:11:37.045Z,5.85
2022-08-27T10:14:07.326Z,7.22
2022-08-27T10:19:08.535Z,5.50
2022-08-27T10:21:40.387Z,4.88
2022-08-27T10:24:13.299Z,4.43
2022-08-27T10:26:42.526Z,5.00
2022-08-27T10:29:13.269Z,4.53
2022-08-27T10:31:45.651Z,4.43
2022-08-27T10:34:21.057Z,4.82
2022-08-27T10:36:52.236Z,6.63
2022-08-27T10:39:23.911Z,4.90
2022-08-27T10:41:54.809Z,5.03
2022-08-27T10:44:36.826Z,4.97
2022-08-27T10:47:11.089Z,5.28
2022-08-27T10:49:44.065Z,7.10
2022-08-27T10:52:14.941Z,5.82
2022-08-27T10:54:45.000Z,4.30
2022-08-27T10:57:35.438Z,4.43
2022-08-27T11:00:08.603Z,5.22
2022-08-27T11:02:38.503Z,5.68
2022-08-27T11:05:17.986Z,4.45
2022-08-27T11:07:47.477Z,4.63
2022-08-27T11:10:20.858Z,4.60
2022-08-27T11:12:50.950Z,3.83
2022-08-27T11:15:20.385Z,4.28
2022-08-27T11:17:51.507Z,3.85
2022-08-27T11:20:23.302Z,4.05
2022-08-27T11:22:54.417Z,4.05
2022-08-27T11:25:30.273Z,3.45
2022-08-27T11:27:58.733Z,3.38
2022-08-27T11:30:29.014Z,3.47
2022-08-27T11:33:02.417Z,3.20
2022-08-27T11:35:35.354Z,3.53
2022-08-27T11:38:30.509Z,3.60
2022-08-27T11:41:05.270Z,3.50
2022-08-27T11:43:34.837Z,3.45
2022-08-27T11:46:03.259Z,3.90
2022-08-27T11:48:32.224Z,3.70
2022-08-27T11:51:03.200Z,4.10
2022-08-27T11:53:32.160Z,3.47
2022-08-27T11:56:10.494Z,3.38
2022-08-27T11:58:53.337Z,3.28
2022-08-27T12:01:26.069Z,3.25
2022-08-27T12:04:01.433Z,3.30
2022-08-27T12:06:40.912Z,3.30
2022-08-27T12:09:15.366Z,3.13
2022-08-27T12:11:46.104Z,3.60
2022-08-27T12:14:21.408Z,3.58
2022-08-27T12:16:53.934Z,3.25
2022-08-27T12:19:30.072Z,3.17
2022-08-27T12:22:06.482Z,3.42
2022-08-27T12:24:45.438Z,3.88
2022-08-27T12:27:18.124Z,2.92
2022-08-27T12:29:49.252Z,3.13
2022-08-27T12:32:24.863Z,3.38
2022-08-27T12:34:59.130Z,3.25
2022-08-27T12:37:30.675Z,3.17
2022-08-27T12:40:00.685Z,3.22
2022-08-27T12:42:29.152Z,2.90
2022-08-27T12:44:57.266Z,3.30
2022-08-27T12:47:25.063Z,3.20
2022-08-27T12:49:55.930Z,3.10
2022-08-27T12:52:37.159Z,2.80
2022-08-27T12:55:10.894Z,3.15
2022-08-27T12:57:43.797Z,3.13
2022-08-27T13:00:15.102Z,2.80
2022-08-27T13:02:53.304Z,3.83
2022-08-27T13:05:21.490Z,2.95
2022-08-27T13:07:52.100Z,2.90
2022-08-27T13:10:22.477Z,3.00
2022-08-27T13:13:00.490Z,2.80
2022-08-27T13:15:27.980Z,3.17
2022-08-27T13:17:55.409Z,3.22
2022-08-27T13:20:24.659Z,3.30
2022-08-27T13:22:54.261Z,3.17
2022-08-27T13:25:26.537Z,3.10
2022-08-27T13:27:55.578Z,3.20
2022-08-27T13:30:35.817Z,2.95
2022-08-27T13:33:05.123Z,3.35
2022-08-27T13:35:32.813Z,3.33
2022-08-27T13:38:03.048Z,3.40
2022-08-27T13:40:32.012Z,3.78
2022-08-27T13:43:04.257Z,3.40
2022-08-27T13:45:36.736Z,3.47
2022-08-27T13:48:06.028Z,3.30
2022-08-27T13:50:34.195Z,3.38
2022-08-27T13:53:23.208Z,3.58
2022-08-27T13:55:50.703Z,3.40
2022-08-27T13:58:20.488Z,3.78
2022-08-27T14:00:47.989Z,3.50
2022-08-27T14:03:31.251Z,3.72
2022-08-27T14:05:58.936Z,3.65
2022-08-27T14:08:30.877Z,4.70
2022-08-27T14:11:02.933Z,3.92
2022-08-27T14:13:31.479Z,3.95
2022-08-27T14:15:59.755Z,3.60
2022-08-27T14:18:47.969Z,3.53
2022-08-27T14:21:15.823Z,3.15
2022-08-27T14:23:44.772Z,3.65
2022-08-27T14:26:14.080Z,3.75
2022-08-27T14:28:42.005Z,3.85
2022-08-27T14:31:09.528Z,3.55
2022-08-27T14:33:37.004Z,3.88
2022-08-27T14:36:04.865Z,3.60
2022-08-27T14:38:33.853Z,3.55
2022-08-27T14:41:02.677Z,3.28
2022-08-27T14:43:34.854Z,3.50
2022-08-27T14:46:03.115Z,3.67
2022-08-27T14:48:33.223Z,3.55
2022-08-27T14:51:02.270Z,3.65
2022-08-27T14:53:30.066Z,3.55
2022-08-27T14:55:58.966Z,3.80
2022-08-27T14:58:28.303Z,3.60
2022-08-27T15:00:56.508Z,3.47
2022-08-27T15:03:25.416Z,4.20
2022-08-27T15:05:54.777Z,4.07
2022-08-27T15:08:27.412Z,4.05
2022-08-27T15:10:56.816Z,4.13
2022-08-27T15:13:24.544Z,4.70
2022-08-27T15:15:53.349Z,4.40
2022-08-27T15:18:20.865Z,4.68
2022-08-27T15:20:48.516Z,5.07
2022-08-27T15:23:16.739Z,5.50
2022-08-27T15:25:46.434Z,4.65
2022-08-27T15:28:13.965Z,5.35
2022-08-27T15:30:41.433Z,5.78
2022-08-27T15:33:10.318Z,5.38
2022-08-27T15:35:37.825Z,5.03
2022-08-27T15:38:05.446Z,5.10
2022-08-27T15:40:35.541Z,5.63
2022-08-27T15:43:05.241Z,4.55
2022-08-27T15:45:32.878Z,4.97
2022-08-27T15:48:00.864Z,5.30
2022-08-27T15:50:31.094Z,5.32
2022-08-27T15:55:28.571Z,5.45
2022-08-27T15:57:56.390Z,5.50
2022-08-27T16:00:24.730Z,5.55
2022-08-27T16:02:52.568Z,5.07
2022-08-27T16:05:20.163Z,5.38
2022-08-27T16:07:49.067Z,5.15
2022-08-27T16:10:16.828Z,6.03
2022-08-27T16:12:44.517Z,6.22
2022-08-27T16:15:12.359Z,5.18
2022-08-27T16:17:40.079Z,5.90
2022-08-27T16:20:08.478Z,5.05
2022-08-27T16:22:36.199Z,5.00
2022-08-27T16:25:05.893Z,4.40
2022-08-27T16:27:33.348Z,4.50
2022-08-27T16:30:00.866Z,3.65
2022-08-27T16:32:28.881Z,3.95
2022-08-27T16:34:56.855Z,4.22
2022-08-27T16:37:24.390Z,4.32
2022-08-27T16:39:51.929Z,4.00
2022-08-27T16:42:20.826Z,4.00
2022-08-27T16:44:48.311Z,4.05
2022-08-27T16:47:15.748Z,3.75
2022-08-27T16:50:00.864Z,3.97
2022-08-27T16:52:28.571Z,3.72
2022-08-27T16:54:56.848Z,3.70
2022-08-27T16:57:25.590Z,4.10
2022-08-27T16:59:54.948Z,3.67
2022-08-27T17:02:30.161Z,3.90
2022-08-27T17:05:17.289Z,3.70
2022-08-27T17:07:48.325Z,3.30
2022-08-27T17:10:17.180Z,3.00
2022-08-27T17:12:47.913Z,3.05
2022-08-27T17:15:16.082Z,2.97
2022-08-27T17:17:43.499Z,2.90
2022-08-27T17:20:11.310Z,3.17
2022-08-27T17:22:38.895Z,2.95
2022-08-27T17:25:07.975Z,3.08
2022-08-27T17:27:35.427Z,2.97
2022-08-27T17:30:04.610Z,3.20
2022-08-27T17:32:33.280Z,3.03
2022-08-27T17:35:05.643Z,2.80
2022-08-27T17:37:33.659Z,3.28
2022-08-27T17:40:01.215Z,3.35
2022-08-27T17:42:29.873Z,2.90
2022-08-27T17:44:57.684Z,3.10
2022-08-27T17:47:26.876Z,3.33
2022-08-27T17:49:54.683Z,3.50
2022-08-27T17:52:22.594Z,4.10
2022-08-27T17:54:51.911Z,3.65
2022-08-27T17:57:20.888Z,4.20
2022-08-27T17:59:48.643Z,3.55
2022-08-27T18:02:20.149Z,3.70
2022-08-27T18:04:50.128Z,4.00
2022-08-27T18:07:17.757Z,4.00
2022-08-27T18:09:45.246Z,2.97
2022-08-27T18:12:13.698Z,3.47
2022-08-27T18:14:41.219Z,4.05
2022-08-27T18:17:08.731Z,3.50
2022-08-27T18:19:37.823Z,3.60
2022-08-27T18:22:07.324Z,3.20
2022-08-27T18:24:34.711Z,3.30
2022-08-27T18:27:02.325Z,3.60
2022-08-27T18:29:29.840Z,3.72
2022-08-27T18:31:57.244Z,3.67
2022-08-27T18:34:24.696Z,3.60
2022-08-27T18:36:52.292Z,2.67
2022-08-27T18:39:21.065Z,2.72
2022-08-27T18:41:53.453Z,3.22
2022-08-27T18:44:21.082Z,2.90
2022-08-27T18:46:48.529Z,2.70
2022-08-27T18:49:15.998Z,2.38
2022-08-27T18:51:46.986Z,2.53
2022-08-27T18:54:16.897Z,2.63
2022-08-27T18:56:45.690Z,2.90
2022-08-27T18:59:13.693Z,2.88
2022-08-27T19:01:41.410Z,2.72
2022-08-27T19:04:10.507Z,2.72
2022-08-27T19:06:38.000Z,2.80
2022-08-27T19:09:05.516Z,3.28
2022-08-27T19:11:33.184Z,2.80
2022-08-27T19:14:01.950Z,2.60
2022-08-27T19:16:37.381Z,2.88
2022-08-27T19:19:05.044Z,2.80
2022-08-27T19:21:32.661Z,2.85
2022-08-27T19:24:00.135Z,2.58
2022-08-27T19:26:27.598Z,2.08
2022-08-27T19:28:55.020Z,2.35
2022-08-27T19:31:24.075Z,2.30
2022-08-27T19:33:52.103Z,2.58
2022-08-27T19:36:20.523Z,2.30
2022-08-27T19:38:50.161Z,1.95
2022-08-27T19:41:17.986Z,1.80
2022-08-27T19:43:46.140Z,1.80
2022-08-27T19:46:14.309Z,1.65
2022-08-27T19:48:43.156Z,1.83
2022-08-27T19:51:10.964Z,2.70
2022-08-27T19:53:38.428Z,1.95
2022-08-27T19:56:06.208Z,1.70
2022-08-27T19:58:33.635Z,2.28
2022-08-27T20:01:01.204Z,2.10
2022-08-27T20:03:28.716Z,2.10
2022-08-27T20:05:57.553Z,2.20
2022-08-27T20:08:24.988Z,2.38
2022-08-27T20:10:52.566Z,2.55
2022-08-27T20:13:20.011Z,2.90
2022-08-27T20:15:48.141Z,3.10
2022-08-27T20:18:15.625Z,3.22
2022-08-27T20:20:43.318Z,3.30
2022-08-27T20:23:12.122Z,4.35
2022-08-27T20:25:39.623Z,3.83
2022-08-27T20:28:28.365Z,4.28
2022-08-27T20:30:56.556Z,3.85
2022-08-27T20:33:23.976Z,4.00
2022-08-27T20:35:51.408Z,4.68
2022-08-27T20:38:21.739Z,4.50
2022-08-27T20:40:49.188Z,4.18
2022-08-27T20:43:16.673Z,4.60
2022-08-27T20:45:44.587Z,4.63
2022-08-27T20:48:12.663Z,4.75
2022-08-27T20:50:40.239Z,5.20
2022-08-27T20:53:07.678Z,5.07
2022-08-27T20:55:36.428Z,5.13
2022-08-27T20:58:21.126Z,5.20
2022-08-27T21:00:52.273Z,5.63
2022-08-27T21:03:19.749Z,5.72
2022-08-27T21:05:48.509Z,6.18
2022-08-27T21:08:17.494Z,5.47
2022-08-27T21:10:47.245Z,5.47
2022-08-27T21:13:15.170Z,6.07
2022-08-27T21:15:42.683Z,6.43
2022-08-27T21:18:10.918Z,6.10
2022-08-27T21:20:38.694Z,5.68
2022-08-27T21:23:06.107Z,6.13
2022-08-27T21:25:33.567Z,6.00
2022-08-27T21:28:04.310Z,6.30
2022-08-27T21:30:31.824Z,6.45
2022-08-27T21:32:59.371Z,6.05
2022-08-27T21:35:28.503Z,6.53
2022-08-27T21:37:56.701Z,7.22
2022-08-27T21:40:25.266Z,6.22
2022-08-27T21:42:52.817Z,5.63
2022-08-27T21:45:21.954Z,6.40
2022-08-27T21:47:51.671Z,6.18
2022-08-27T21:50:19.448Z,6.07
2022-08-27T21:52:47.275Z,5.68
2022-08-27T21:55:14.919Z,6.85
2022-08-27T21:57:42.327Z,6.57
2022-08-27T22:00:16.470Z,5.85
2022-08-27T22:02:45.353Z,5.90
2022-08-27T22:05:12.862Z,6.47
2022-08-27T22:07:40.295Z,6.13
2022-08-27T22:10:08.246Z,5.72
2022-08-27T22:12:35.871Z,6.93
2022-08-27T22:15:04.126Z,6.30
2022-08-27T22:17:31.594Z,6.40
2022-08-27T22:20:00.371Z,6.15
2022-08-27T22:22:30.751Z,6.32
2022-08-27T22:24:58.822Z,6.90
2022-08-27T22:27:26.620Z,6.82
2022-08-27T22:29:54.082Z,6.63
2022-08-27T22:32:21.537Z,7.68
2022-08-27T22:34:49.077Z,7.55
2022-08-27T22:37:17.894Z,7.80
2022-08-27T22:39:45.355Z,7.47
2022-08-27T22:42:13.918Z,7.65
2022-08-27T22:44:45.263Z,7.13
2022-08-27T22:47:14.821Z,7.18
2022-08-27T22:49:42.250Z,8.60
2022-08-27T22:52:09.770Z,7.90
2022-08-27T22:54:38.551Z,9.00
2022-08-27T22:57:06.218Z,7.55
2022-08-27T22:59:38.741Z,7.22
2022-08-27T23:02:08.344Z,7.55
2022-08-27T23:04:54.101Z,7.68
2022-08-27T23:07:22.768Z,7.78
2022-08-27T23:09:51.539Z,9.00
2022-08-27T23:12:19.777Z,8.48
2022-08-27T23:14:47.247Z,8.45
2022-08-27T23:17:16.070Z,8.65
2022-08-27T23:19:43.495Z,9.05
2022-08-27T23:22:10.931Z,8.95
2022-08-27T23:24:59.295Z,8.73
2022-08-27T23:27:30.232Z,9.40
2022-08-27T23:29:57.722Z,9.30
2022-08-27T23:32:25.299Z,8.98
2022-08-27T23:34:53.570Z,9.85
2022-08-27T23:37:21.086Z,9.68
2022-08-27T23:39:48.654Z,9.95
2022-08-27T23:42:18.456Z,9.27
2022-08-27T23:44:47.885Z,10.20
2022-08-27T23:47:15.579Z,9.52
2022-08-27T23:49:43.651Z,9.60
2022-08-27T23:52:11.725Z,11.13
2022-08-27T23:54:39.199Z,11.25
2022-08-27T23:57:06.823Z,10.45
2022-08-27T23:59:34.365Z,10.13
